首页
METAR-TAF:

METAR-TAF

机场 :

卡拉奇, 巴基斯坦

真纳国际机场

纬度: 24-54N, 经度: 067-08E, 海拔: 21米

当前天气观测

该预报发布于38分钟前的13:55 UTC
风速10节,风向西
温度 23°C
湿度 38%
气压 1010 hPa
能見度: 4000

METAR: OPKC 221355Z 26010KT 4000 HZ NSC 23/08 Q1010 NOSIG

时间: 19:33 (14:33 UTC)

预报

该预报发布于4小时和33分钟前的10:00 UTC
预报有效从22日的 12点(UTC)到 23日的 18点(UTC)
风速5节,风向西,有时为15节阵风
能見度: 6000
成为
从 22日的 19点(UTC)到 22日的 21点(UTC)
风速6节,风向西北
能見度: 3000
从 23日的 0500点(UTC)
风速5节,风向西北,有时为15节阵风
能見度: 6000
成为
从 23日的 10点(UTC)到 23日的 12点(UTC)
风速8节,风向西转西南
能見度: 5000

TAF: OPKC 221000Z 2212/2318 26005G15KT 6000 NSC BECMG 2219/2221 31006KT 3000 FU NSC FM230500 31005G15KT 6000 NSC BECMG 2310/2312 25008KT 5000 HZ NSC

超过4000个机场的气象观测和天气预报(METAR&TAF报告)。

可查询的气象台以黄色和红色小点在地图上表示。

将鼠标移到小点上方,可查看气象台名称。

然后点击查看天气观测和预报。

如需切换地图:点击带黑十字的绿色按钮放大地图;点击带横线的绿色按钮缩小地图;或者点击绿色箭头查看邻近地区的地图。


METAR-TAF: